createdAt,value
2022-11-05T00:01:10.459Z,97675.59
2022-11-05T00:03:57.760Z,97680.94
2022-11-05T00:06:44.382Z,97681.94
2022-11-05T00:09:31.270Z,97688.47
2022-11-05T00:12:29.103Z,97677.53
2022-11-05T00:15:20.053Z,97686.13
2022-11-05T00:17:56.994Z,97676.72
2022-11-05T00:20:34.390Z,97688.59
2022-11-05T00:23:25.349Z,97698.59
2022-11-05T00:26:12.134Z,97712.25
2022-11-05T00:28:46.975Z,97708.84
2022-11-05T00:31:20.955Z,97706.94
2022-11-05T00:33:51.742Z,97707.72
2022-11-05T00:36:28.154Z,97711.94
2022-11-05T00:39:06.303Z,97718.41
2022-11-05T00:41:40.933Z,97723.84
2022-11-05T00:44:29.377Z,97748.50
2022-11-05T00:47:15.605Z,97751.47
2022-11-05T00:49:43.745Z,97761.09
2022-11-05T00:52:33.881Z,97754.41
2022-11-05T00:55:07.470Z,97749.88
2022-11-05T00:57:36.712Z,97760.91
2022-11-05T01:00:06.479Z,97764.59
2022-11-05T01:02:39.825Z,97763.81
2022-11-05T01:05:11.367Z,97717.69
2022-11-05T01:07:47.653Z,97760.94
2022-11-05T01:10:17.865Z,97760.94
2022-11-05T01:12:54.715Z,97755.25
2022-11-05T01:15:27.993Z,97753.22
2022-11-05T01:17:57.271Z,97756.06
2022-11-05T01:20:28.227Z,97746.16
2022-11-05T01:22:58.595Z,97760.25
2022-11-05T01:25:38.307Z,97757.00
2022-11-05T01:28:12.247Z,97699.38
2022-11-05T01:30:41.964Z,97753.03
2022-11-05T01:33:12.448Z,97736.38
2022-11-05T01:35:44.524Z,97745.22
2022-11-05T01:38:22.266Z,97722.25
2022-11-05T01:40:53.172Z,97740.22
2022-11-05T01:43:25.163Z,97738.19
2022-11-05T01:46:02.013Z,97731.81
2022-11-05T01:48:39.533Z,97729.31
2022-11-05T01:51:21.089Z,97731.88
2022-11-05T01:54:00.970Z,97739.16
2022-11-05T01:56:40.915Z,97741.56
2022-11-05T01:59:18.066Z,97760.69
2022-11-05T02:01:47.797Z,97749.91
2022-11-05T02:04:34.112Z,97741.03
2022-11-05T02:07:09.615Z,97731.63
2022-11-05T02:10:13.454Z,97731.53
2022-11-05T02:12:53.586Z,97724.44
2022-11-05T02:15:55.021Z,97717.22
2022-11-05T02:19:13.397Z,97729.03
2022-11-05T02:22:12.655Z,97734.94
2022-11-05T02:25:13.536Z,97731.75
2022-11-05T02:27:55.856Z,97737.47
2022-11-05T02:31:13.142Z,97735.75
2022-11-05T02:34:05.724Z,97744.28
2022-11-05T02:37:23.110Z,97749.72
2022-11-05T02:40:24.041Z,97758.13
2022-11-05T02:46:55.347Z,97759.19
2022-11-05T02:49:44.354Z,97744.94
2022-11-05T02:52:40.677Z,97752.69
2022-11-05T02:58:21.515Z,97754.38
2022-11-05T03:01:08.880Z,97767.56
2022-11-05T03:03:49.815Z,97775.78
2022-11-05T03:06:44.720Z,97770.25
2022-11-05T03:09:50.444Z,97769.94
2022-11-05T03:12:26.107Z,97770.03
2022-11-05T03:15:31.504Z,97765.91
2022-11-05T03:18:06.759Z,97772.09
2022-11-05T03:21:06.431Z,97757.00
2022-11-05T03:24:00.568Z,97761.38
2022-11-05T03:26:40.238Z,97763.19
2022-11-05T03:29:36.948Z,97755.06
2022-11-05T03:32:12.564Z,97726.81
2022-11-05T03:34:57.850Z,97742.03
2022-11-05T03:37:42.355Z,97753.19
2022-11-05T03:40:26.826Z,97773.59
2022-11-05T03:43:05.255Z,97770.22
2022-11-05T03:45:44.753Z,97781.31
2022-11-05T03:48:23.077Z,97796.34
2022-11-05T03:51:05.176Z,97788.84
2022-11-05T03:53:38.724Z,97793.13
2022-11-05T03:56:23.555Z,97786.06
2022-11-05T03:58:58.912Z,97796.91
2022-11-05T04:01:37.251Z,97796.91
2022-11-05T04:04:26.446Z,97795.16
2022-11-05T04:07:15.617Z,97800.91
2022-11-05T04:10:01.066Z,97794.69
2022-11-05T04:12:49.425Z,97802.28
2022-11-05T04:15:17.896Z,97811.03
2022-11-05T04:17:49.373Z,97816.75
2022-11-05T04:20:48.856Z,97790.34
2022-11-05T04:23:37.189Z,97817.56
2022-11-05T04:29:23.345Z,97820.31
2022-11-05T04:31:54.331Z,97818.56
2022-11-05T04:34:25.866Z,97818.38
2022-11-05T04:37:01.403Z,97824.69
2022-11-05T04:39:32.826Z,97827.25
2022-11-05T04:42:03.498Z,97834.09
2022-11-05T04:44:34.747Z,97830.19
2022-11-05T04:47:11.661Z,97834.66
2022-11-05T04:49:43.223Z,97851.94
2022-11-05T04:52:15.599Z,97853.88
2022-11-05T04:54:47.095Z,97862.88
2022-11-05T04:57:16.822Z,97865.09
2022-11-05T04:59:52.824Z,97852.13
2022-11-05T05:02:30.180Z,97874.72
2022-11-05T05:05:01.610Z,97848.72
2022-11-05T05:07:32.639Z,97874.28
2022-11-05T05:10:05.404Z,97840.53
2022-11-05T05:12:46.008Z,97867.88
2022-11-05T05:15:16.464Z,97875.53
2022-11-05T05:18:00.122Z,97869.50
2022-11-05T05:20:53.699Z,97877.06
2022-11-05T05:23:35.837Z,97883.16
2022-11-05T05:26:15.679Z,97882.25
2022-11-05T05:28:45.890Z,97869.41
2022-11-05T05:31:17.287Z,97892.34
2022-11-05T05:33:55.649Z,97890.72
2022-11-05T05:36:26.914Z,97892.06
2022-11-05T05:38:59.361Z,97878.41
2022-11-05T05:41:36.859Z,97914.28
2022-11-05T05:44:06.351Z,97920.59
2022-11-05T05:46:35.993Z,97923.19
2022-11-05T05:51:59.540Z,97937.94
2022-11-05T05:54:42.649Z,97926.00
2022-11-05T05:57:18.661Z,97944.97
2022-11-05T06:00:02.742Z,97951.03
2022-11-05T06:02:56.149Z,97954.69
2022-11-05T06:05:37.406Z,97953.78
2022-11-05T06:08:08.175Z,97963.22
2022-11-05T06:10:42.102Z,97933.00
2022-11-05T06:13:15.761Z,97958.06
2022-11-05T06:15:47.060Z,97961.94
2022-11-05T06:18:15.944Z,97969.88
2022-11-05T06:23:30.276Z,97959.38
2022-11-05T06:26:15.799Z,97980.31
2022-11-05T06:28:46.656Z,97952.34
2022-11-05T06:31:16.940Z,97979.38
2022-11-05T06:33:50.675Z,97984.28
2022-11-05T06:36:34.394Z,97986.94
2022-11-05T06:39:05.142Z,97986.44
2022-11-05T06:42:17.172Z,97999.50
2022-11-05T06:44:40.287Z,97985.50
2022-11-05T06:47:15.474Z,98011.53
2022-11-05T06:49:51.983Z,98010.44
2022-11-05T06:52:20.594Z,98010.19
2022-11-05T06:54:56.309Z,98026.97
2022-11-05T06:57:27.594Z,98031.66
2022-11-05T07:00:08.091Z,98028.38
2022-11-05T07:02:37.220Z,98039.03
2022-11-05T07:05:07.754Z,98040.28
2022-11-05T07:07:41.418Z,98035.16
2022-11-05T07:10:17.332Z,98044.97
2022-11-05T07:12:47.844Z,98046.59
2022-11-05T07:15:25.517Z,98049.16
2022-11-05T07:18:07.718Z,98039.25
2022-11-05T07:20:44.376Z,98055.69
2022-11-05T07:23:27.936Z,98060.19
2022-11-05T07:25:59.486Z,98058.75
2022-11-05T07:28:43.804Z,98059.06
2022-11-05T07:31:25.101Z,98060.06
2022-11-05T07:34:02.630Z,98055.28
2022-11-05T07:36:36.717Z,98052.53
2022-11-05T07:39:06.038Z,98070.88
2022-11-05T07:41:40.048Z,98047.00
2022-11-05T07:44:14.016Z,98067.13
2022-11-05T07:46:48.311Z,98064.56
2022-11-05T07:49:34.562Z,98060.69
2022-11-05T07:52:05.662Z,98064.38
2022-11-05T07:54:47.429Z,98060.88
2022-11-05T07:57:17.326Z,98061.28
2022-11-05T07:59:59.300Z,98074.47
2022-11-05T08:02:30.006Z,98073.53
2022-11-05T08:04:58.987Z,98068.44
2022-11-05T08:07:26.890Z,98072.81
2022-11-05T08:10:01.215Z,98081.06
2022-11-05T08:12:36.628Z,98083.63
2022-11-05T08:15:11.088Z,98085.44
2022-11-05T08:17:41.266Z,98081.16
2022-11-05T08:20:11.653Z,98082.03
2022-11-05T08:22:46.714Z,98087.06
2022-11-05T08:25:24.734Z,98083.34
2022-11-05T08:28:11.651Z,98080.69
2022-11-05T08:30:42.762Z,98070.69
2022-11-05T08:33:13.920Z,98085.31
2022-11-05T08:35:45.254Z,98083.03
2022-11-05T08:38:20.526Z,98076.75
2022-11-05T08:41:00.668Z,98072.63
2022-11-05T08:43:29.582Z,98059.53
2022-11-05T08:49:10.278Z,98063.88
2022-11-05T08:51:39.033Z,98064.06
2022-11-05T08:54:16.084Z,98036.50
2022-11-05T08:59:32.156Z,98067.03
2022-11-05T09:02:09.601Z,98063.97
2022-11-05T09:04:41.225Z,98071.03
2022-11-05T09:09:57.006Z,98049.66
2022-11-05T09:12:33.682Z,98077.81
2022-11-05T09:15:02.828Z,98080.50
2022-11-05T09:17:36.620Z,98087.13
2022-11-05T09:20:07.037Z,98076.59
2022-11-05T09:22:43.066Z,98080.00
2022-11-05T09:25:16.543Z,98089.16
2022-11-05T09:27:47.195Z,98085.91
2022-11-05T09:30:19.661Z,98084.78
2022-11-05T09:32:48.809Z,98091.78
2022-11-05T09:35:25.277Z,98085.91
2022-11-05T09:38:01.228Z,98093.28
2022-11-05T09:40:39.020Z,98085.34
2022-11-05T09:43:11.745Z,98072.84
2022-11-05T09:45:41.281Z,98073.84
2022-11-05T09:48:30.217Z,98080.72
2022-11-05T09:50:59.048Z,98089.03
2022-11-05T09:53:27.612Z,98091.34
2022-11-05T09:56:11.208Z,98085.34
2022-11-05T09:59:06.695Z,98091.47
2022-11-05T10:01:41.508Z,98086.28
2022-11-05T10:04:33.438Z,98086.47
2022-11-05T10:07:14.936Z,98073.34
2022-11-05T10:09:48.151Z,98075.63
2022-11-05T10:12:52.519Z,98075.16
2022-11-05T10:15:25.181Z,98047.75
2022-11-05T10:18:05.482Z,98075.00
2022-11-05T10:20:43.064Z,98081.31
2022-11-05T10:23:26.097Z,98085.09
2022-11-05T10:26:06.683Z,98072.38
2022-11-05T10:28:42.428Z,98074.66
2022-11-05T10:31:17.873Z,98070.59
2022-11-05T10:33:58.427Z,98082.25
2022-11-05T10:36:32.012Z,98094.00
2022-11-05T10:39:20.706Z,98101.88
2022-11-05T10:42:07.819Z,98102.00
2022-11-05T10:45:07.770Z,98108.84
2022-11-05T10:48:23.485Z,98103.13
2022-11-05T10:51:01.350Z,98095.34
2022-11-05T10:53:40.798Z,98084.09
2022-11-05T10:56:45.818Z,98091.44
2022-11-05T11:00:01.439Z,98088.50
2022-11-05T11:02:32.572Z,98078.41
2022-11-05T11:07:56.112Z,98071.41
2022-11-05T11:10:43.944Z,98069.78
2022-11-05T11:16:37.796Z,98081.03
2022-11-05T11:19:47.088Z,98084.13
2022-11-05T11:22:24.105Z,98084.44
2022-11-05T11:24:54.145Z,98083.81
2022-11-05T11:27:37.901Z,98081.50
2022-11-05T11:30:22.532Z,98075.94
2022-11-05T11:32:53.367Z,98058.88
2022-11-05T11:35:45.726Z,98062.31
2022-11-05T11:38:28.053Z,98044.91
2022-11-05T11:41:24.134Z,98070.19
2022-11-05T11:44:07.985Z,98074.28
2022-11-05T11:46:44.853Z,98072.25
2022-11-05T11:49:48.133Z,98069.63
2022-11-05T11:52:38.926Z,98076.00
2022-11-05T11:55:23.815Z,98064.97
2022-11-05T11:57:59.037Z,98070.50
2022-11-05T12:00:31.707Z,98055.34
2022-11-05T12:03:23.347Z,98071.47
2022-11-05T12:06:44.959Z,98069.84
2022-11-05T12:10:05.061Z,98071.78
2022-11-05T12:12:46.639Z,98068.53
2022-11-05T12:16:09.170Z,98055.19
2022-11-05T12:19:26.543Z,98046.59
2022-11-05T12:22:06.275Z,98044.34
2022-11-05T12:24:54.317Z,98044.41
2022-11-05T12:30:59.190Z,98047.09
2022-11-05T12:33:57.565Z,98052.44
2022-11-05T12:37:00.523Z,98051.81
2022-11-05T12:40:06.429Z,98052.84
2022-11-05T12:43:00.526Z,98061.28
2022-11-05T12:46:09.027Z,98053.38
2022-11-05T12:49:39.847Z,98033.44
2022-11-05T12:52:41.677Z,98056.03
2022-11-05T12:55:22.015Z,98049.50
2022-11-05T12:58:03.194Z,98046.06
2022-11-05T13:00:55.721Z,98043.22
2022-11-05T13:04:16.742Z,98046.78
2022-11-05T13:06:58.127Z,98043.50
2022-11-05T13:09:47.123Z,98052.31
2022-11-05T13:12:26.257Z,98042.28
2022-11-05T13:15:25.660Z,98037.34
2022-11-05T13:18:16.744Z,98045.72
2022-11-05T13:20:54.906Z,98054.41
2022-11-05T13:23:52.544Z,98058.59
2022-11-05T13:26:33.215Z,98039.06
2022-11-05T13:29:28.691Z,98058.59
2022-11-05T13:32:04.871Z,98069.75
2022-11-05T13:34:42.386Z,98073.56
2022-11-05T13:37:43.824Z,98070.44
2022-11-05T13:40:20.223Z,98069.63
2022-11-05T13:43:44.076Z,98063.50
2022-11-05T13:47:11.527Z,98068.25
2022-11-05T13:53:43.564Z,98085.50
2022-11-05T13:56:49.116Z,98082.22
2022-11-05T13:59:41.229Z,98079.81
2022-11-05T14:02:19.965Z,98085.88
2022-11-05T14:05:40.567Z,98090.09
2022-11-05T14:08:13.222Z,98089.97
2022-11-05T14:11:00.845Z,98101.75
2022-11-05T14:13:43.824Z,98101.69
2022-11-05T14:16:27.254Z,98098.44
2022-11-05T14:18:57.529Z,98103.03
2022-11-05T14:21:48.879Z,98100.41
2022-11-05T14:24:34.223Z,98098.31
2022-11-05T14:27:07.648Z,98111.50
2022-11-05T14:29:49.013Z,98107.44
2022-11-05T14:32:31.487Z,98107.75
2022-11-05T14:35:48.504Z,98095.47
2022-11-05T14:38:33.832Z,98104.94
2022-11-05T14:41:12.442Z,98105.75
2022-11-05T14:43:48.941Z,98107.75
2022-11-05T14:46:25.642Z,98105.78
2022-11-05T14:49:09.315Z,98108.84
2022-11-05T14:51:52.234Z,98104.97
2022-11-05T14:54:45.657Z,98101.38
2022-11-05T14:57:39.237Z,98102.41
2022-11-05T15:00:13.392Z,98112.50
2022-11-05T15:03:26.965Z,98110.38
2022-11-05T15:06:05.050Z,98102.53
2022-11-05T15:08:53.969Z,98093.72
2022-11-05T15:11:34.828Z,98101.88
2022-11-05T15:14:38.029Z,98097.47
2022-11-05T15:17:24.552Z,98097.19
2022-11-05T15:22:56.025Z,98119.00
2022-11-05T15:25:41.104Z,98121.56
2022-11-05T15:28:36.627Z,98120.22
2022-11-05T15:31:21.967Z,98125.44
2022-11-05T15:33:58.496Z,98126.06
2022-11-05T15:36:54.965Z,98130.72
2022-11-05T15:39:49.661Z,98142.50
2022-11-05T15:42:31.758Z,98143.22
2022-11-05T15:45:07.486Z,98145.78
2022-11-05T15:47:37.127Z,98164.78
2022-11-05T15:50:24.700Z,98153.63
2022-11-05T15:53:28.348Z,98152.34
2022-11-05T15:56:22.914Z,98173.44
2022-11-05T15:59:10.000Z,98184.50
2022-11-05T16:01:51.875Z,98182.28
2022-11-05T16:04:58.144Z,98175.41
2022-11-05T16:07:29.248Z,98182.22
2022-11-05T16:10:23.815Z,98192.66
2022-11-05T16:12:55.497Z,98198.50
2022-11-05T16:15:32.772Z,98200.03
2022-11-05T16:18:22.275Z,98206.38
2022-11-05T16:21:26.153Z,98214.75
2022-11-05T16:24:06.790Z,98217.19
2022-11-05T16:27:02.149Z,98221.38
2022-11-05T16:29:53.062Z,98234.19
2022-11-05T16:32:30.985Z,98231.00
2022-11-05T16:35:05.482Z,98238.06
2022-11-05T16:37:51.676Z,98223.63
2022-11-05T16:40:51.395Z,98225.53
2022-11-05T16:43:26.605Z,98256.50
2022-11-05T16:46:04.192Z,98253.50
2022-11-05T16:48:34.122Z,98255.00
2022-11-05T16:51:02.823Z,98260.97
2022-11-05T16:53:35.463Z,98261.88
2022-11-05T16:58:59.241Z,98275.59
2022-11-05T17:01:30.057Z,98176.16
2022-11-05T17:04:03.287Z,98283.84
2022-11-05T17:06:40.491Z,98290.94
2022-11-05T17:09:11.573Z,98305.25
2022-11-05T17:11:48.527Z,98293.94
2022-11-05T17:14:31.138Z,98278.28
2022-11-05T17:17:06.032Z,98282.81
2022-11-05T17:19:37.466Z,98311.47
2022-11-05T17:22:06.782Z,98310.19
2022-11-05T17:24:37.935Z,98323.19
2022-11-05T17:27:11.395Z,98323.31
2022-11-05T17:29:41.808Z,98324.31
2022-11-05T17:32:13.168Z,98325.41
2022-11-05T17:34:44.096Z,98333.78
2022-11-05T17:37:14.073Z,98325.72
2022-11-05T17:39:44.639Z,98325.59
2022-11-05T17:42:14.174Z,98338.81
2022-11-05T17:44:43.267Z,98341.97
2022-11-05T17:47:12.969Z,98339.88
2022-11-05T17:49:43.600Z,98343.56
2022-11-05T17:52:12.945Z,98347.44
2022-11-05T17:54:43.323Z,98353.75
2022-11-05T17:57:11.376Z,98358.06
2022-11-05T17:59:42.054Z,98355.00
2022-11-05T18:02:23.963Z,98356.63
2022-11-05T18:04:53.550Z,98359.53
2022-11-05T18:07:26.363Z,98365.09
2022-11-05T18:09:56.460Z,98367.91
2022-11-05T18:12:26.492Z,98364.59
2022-11-05T18:14:56.420Z,98371.97
2022-11-05T18:17:26.699Z,98367.75
2022-11-05T18:19:57.673Z,98370.03
2022-11-05T18:22:29.339Z,98371.09
2022-11-05T18:25:05.466Z,98367.44
2022-11-05T18:27:34.681Z,98350.22
2022-11-05T18:30:08.264Z,98381.72
2022-11-05T18:32:38.604Z,98375.25
2022-11-05T18:35:09.630Z,98375.25
2022-11-05T18:37:51.773Z,98371.13
2022-11-05T18:40:35.930Z,98378.16
2022-11-05T18:43:09.843Z,98373.53
2022-11-05T18:45:47.892Z,98392.41
2022-11-05T18:48:22.729Z,98383.91
2022-11-05T18:50:59.145Z,98386.22
2022-11-05T18:53:35.058Z,98390.44
2022-11-05T18:56:21.516Z,98394.59
2022-11-05T18:59:30.099Z,98392.84
2022-11-05T19:01:53.870Z,98401.94
2022-11-05T19:04:28.729Z,98414.28
2022-11-05T19:07:04.802Z,98414.28
2022-11-05T19:09:35.794Z,98421.78
2022-11-05T19:15:03.021Z,98430.63
2022-11-05T19:17:33.536Z,98431.97
2022-11-05T19:20:03.537Z,98431.72
2022-11-05T19:22:31.926Z,98417.31
2022-11-05T19:25:13.460Z,98428.72
2022-11-05T19:27:49.673Z,98432.16
2022-11-05T19:30:18.653Z,98431.72
2022-11-05T19:32:47.407Z,98449.84
2022-11-05T19:35:18.179Z,98450.13
2022-11-05T19:37:50.512Z,98443.19
2022-11-05T19:40:19.376Z,98449.59
2022-11-05T19:42:48.821Z,98447.88
2022-11-05T19:48:17.842Z,98447.19
2022-11-05T19:50:49.672Z,98455.53
2022-11-05T19:53:19.187Z,98451.41
2022-11-05T19:55:48.172Z,98462.19
2022-11-05T19:58:18.841Z,98437.59
2022-11-05T20:00:49.492Z,98461.72
2022-11-05T20:03:21.624Z,98466.06
2022-11-05T20:05:53.973Z,98437.63
2022-11-05T20:08:27.880Z,98457.88
2022-11-05T20:10:59.510Z,98463.41
2022-11-05T20:13:37.290Z,98462.06
2022-11-05T20:16:14.518Z,98469.19
2022-11-05T20:18:50.022Z,98476.50
2022-11-05T20:21:28.618Z,98466.34
2022-11-05T20:24:06.374Z,98482.88
2022-11-05T20:26:35.812Z,98477.38
2022-11-05T20:29:06.975Z,98473.28
2022-11-05T20:31:43.576Z,98491.38
2022-11-05T20:34:14.514Z,98488.63
2022-11-05T20:36:43.635Z,98477.66
2022-11-05T20:42:03.283Z,98501.28
2022-11-05T20:44:33.295Z,98503.75
2022-11-05T20:47:04.813Z,98495.25
2022-11-05T20:49:34.103Z,98504.59
2022-11-05T20:52:03.217Z,98503.50
2022-11-05T20:54:33.511Z,98511.69
2022-11-05T20:57:09.796Z,98478.81
2022-11-05T20:59:40.546Z,98504.84
2022-11-05T21:02:16.031Z,98503.78
2022-11-05T21:04:47.538Z,98509.00
2022-11-05T21:07:16.712Z,98508.69
2022-11-05T21:09:46.390Z,98510.09
2022-11-05T21:12:19.854Z,98517.50
2022-11-05T21:15:04.271Z,98525.47
2022-11-05T21:17:34.742Z,98525.72
2022-11-05T21:20:08.967Z,98494.19
2022-11-05T21:22:37.149Z,98524.91
2022-11-05T21:25:10.938Z,98523.25
2022-11-05T21:27:43.736Z,98528.19
2022-11-05T21:30:13.973Z,98512.56
2022-11-05T21:35:24.910Z,98524.38
2022-11-05T21:38:01.708Z,98526.03
2022-11-05T21:40:36.051Z,98515.31
2022-11-05T21:43:13.499Z,98515.31
2022-11-05T21:45:54.656Z,98522.13
2022-11-05T21:48:23.835Z,98525.13
2022-11-05T21:51:12.059Z,98531.16
2022-11-05T21:54:00.365Z,98527.09
2022-11-05T21:56:47.723Z,98535.06
2022-11-05T22:02:32.164Z,98527.63
2022-11-05T22:05:06.843Z,98518.28
2022-11-05T22:07:39.989Z,98523.78
2022-11-05T22:10:15.914Z,98524.06
2022-11-05T22:12:51.568Z,98510.09
2022-11-05T22:15:19.223Z,98520.50
2022-11-05T22:17:53.983Z,98511.75
2022-11-05T22:20:25.535Z,98516.97
2022-11-05T22:23:03.312Z,98512.25
2022-11-05T22:25:36.502Z,98495.00
2022-11-05T22:28:12.207Z,98518.81
2022-11-05T22:30:42.461Z,98521.88
2022-11-05T22:33:19.983Z,98512.75
2022-11-05T22:35:50.700Z,98517.78
2022-11-05T22:38:21.182Z,98524.91
2022-11-05T22:40:51.765Z,98519.41
2022-11-05T22:43:20.663Z,98530.94
2022-11-05T22:45:52.686Z,98533.63
2022-11-05T22:48:21.684Z,98543.22
2022-11-05T22:50:51.821Z,98442.78
2022-11-05T22:53:25.512Z,98542.41
2022-11-05T22:55:54.516Z,98507.22
2022-11-05T22:58:30.794Z,98539.06
2022-11-05T23:01:03.047Z,98543.19
2022-11-05T23:03:34.015Z,98544.56
2022-11-05T23:06:34.029Z,98550.63
2022-11-05T23:09:22.864Z,98531.63
2022-11-05T23:12:03.893Z,98554.16
2022-11-05T23:14:34.676Z,98554.16
2022-11-05T23:17:25.562Z,98538.84
2022-11-05T23:20:29.030Z,98546.00
2022-11-05T23:23:16.903Z,98545.75
2022-11-05T23:25:47.081Z,98543.22
2022-11-05T23:28:23.961Z,98543.22
2022-11-05T23:31:10.110Z,98543.13
2022-11-05T23:33:46.536Z,98549.97
2022-11-05T23:36:31.570Z,98552.50
2022-11-05T23:39:09.479Z,98557.09
2022-11-05T23:41:57.016Z,98558.94
2022-11-05T23:44:44.662Z,98559.75
2022-11-05T23:47:34.208Z,98560.56
2022-11-05T23:50:07.956Z,98571.88
2022-11-05T23:52:39.202Z,98544.03
2022-11-05T23:55:18.410Z,98572.78
2022-11-05T23:57:56.269Z,98561.75
